createdAt,value
2018-06-18T00:02:12.396Z,3.57
2018-06-18T00:04:40.244Z,2.93
2018-06-18T00:07:07.772Z,3.50
2018-06-18T00:09:35.264Z,3.37
2018-06-18T00:12:02.801Z,3.00
2018-06-18T00:14:30.296Z,3.27
2018-06-18T00:16:57.828Z,4.27
2018-06-18T00:19:25.322Z,4.00
2018-06-18T00:21:52.845Z,3.63
2018-06-18T00:24:20.436Z,4.43
2018-06-18T00:26:47.972Z,3.60
2018-06-18T00:29:15.466Z,3.50
2018-06-18T00:31:43.299Z,3.30
2018-06-18T00:34:10.805Z,3.37
2018-06-18T00:36:38.312Z,3.33
2018-06-18T00:39:07.344Z,3.50
2018-06-18T00:41:34.771Z,4.27
2018-06-18T00:44:02.280Z,3.03
2018-06-18T00:46:29.824Z,3.77
2018-06-18T00:48:57.327Z,3.77
2018-06-18T00:51:25.605Z,3.70
2018-06-18T00:53:53.112Z,3.53
2018-06-18T00:56:20.626Z,3.87
2018-06-18T00:58:48.166Z,3.70
2018-06-18T01:01:15.697Z,3.47
2018-06-18T01:03:43.209Z,4.00
2018-06-18T01:06:10.740Z,4.33
2018-06-18T01:08:38.559Z,3.80
2018-06-18T01:11:06.064Z,3.43
2018-06-18T01:13:34.180Z,3.90
2018-06-18T01:16:01.677Z,4.07
2018-06-18T01:18:29.223Z,4.10
2018-06-18T01:20:56.737Z,3.90
2018-06-18T01:23:44.460Z,3.80
2018-06-18T01:26:12.213Z,3.30
2018-06-18T01:28:39.729Z,3.50
2018-06-18T01:31:07.240Z,3.90
2018-06-18T01:33:35.209Z,4.10
2018-06-18T01:36:02.876Z,4.17
2018-06-18T01:38:30.417Z,3.27
2018-06-18T01:40:57.964Z,3.60
2018-06-18T01:43:25.477Z,3.90
2018-06-18T01:45:53.164Z,3.90
2018-06-18T01:48:20.688Z,4.20
2018-06-18T01:50:48.525Z,3.47
2018-06-18T01:53:16.049Z,3.60
2018-06-18T01:55:43.713Z,3.80
2018-06-18T01:58:11.237Z,3.70
2018-06-18T02:00:38.730Z,3.37
2018-06-18T02:03:06.252Z,4.13
2018-06-18T02:05:33.766Z,3.17
2018-06-18T02:08:01.383Z,3.70
2018-06-18T02:10:28.892Z,3.30
2018-06-18T02:12:56.433Z,3.30
2018-06-18T02:15:24.400Z,3.60
2018-06-18T02:17:52.190Z,4.10
2018-06-18T02:20:20.292Z,4.43
2018-06-18T02:22:47.829Z,4.00
2018-06-18T02:25:15.333Z,3.60
2018-06-18T02:27:48.716Z,3.70
2018-06-18T02:30:21.989Z,3.43
2018-06-18T02:33:56.069Z,3.30
2018-06-18T02:36:29.363Z,3.43
2018-06-18T02:39:02.582Z,4.17
2018-06-18T02:41:30.085Z,3.97
2018-06-18T02:43:57.604Z,3.80
2018-06-18T02:46:25.088Z,4.63
2018-06-18T02:48:52.620Z,4.40
2018-06-18T02:51:20.113Z,4.20
2018-06-18T02:53:47.634Z,3.83
2018-06-18T02:56:15.716Z,3.83
2018-06-18T02:58:43.236Z,3.53
2018-06-18T03:01:10.732Z,3.83
2018-06-18T03:03:38.248Z,3.50
2018-06-18T03:06:06.286Z,3.63
2018-06-18T03:08:33.807Z,3.70
2018-06-18T03:11:01.301Z,3.93
2018-06-18T03:13:28.830Z,3.77
2018-06-18T03:15:56.356Z,3.93
2018-06-18T03:18:29.558Z,5.10
2018-06-18T03:21:02.753Z,4.30
2018-06-18T03:23:35.960Z,4.30
2018-06-18T03:26:09.212Z,4.47
2018-06-18T03:28:42.544Z,4.80
2018-06-18T03:31:10.119Z,3.70
2018-06-18T03:33:37.658Z,3.90
2018-06-18T03:36:07.218Z,3.97
2018-06-18T03:38:34.760Z,4.27
2018-06-18T03:41:02.276Z,4.30
2018-06-18T03:43:30.084Z,4.23
2018-06-18T03:45:57.581Z,4.00
2018-06-18T03:48:25.101Z,3.93
2018-06-18T03:50:53.200Z,3.57
2018-06-18T03:53:20.704Z,3.77
2018-06-18T03:55:57.572Z,3.67
2018-06-18T03:58:25.097Z,3.63
2018-06-18T04:01:07.717Z,4.17
2018-06-18T04:03:40.971Z,4.27
2018-06-18T04:07:17.028Z,3.90
2018-06-18T04:09:50.221Z,3.97
2018-06-18T04:12:17.800Z,4.30
2018-06-18T04:14:45.332Z,3.53
2018-06-18T04:17:12.828Z,4.77
2018-06-18T04:19:40.340Z,5.27
2018-06-18T04:22:07.849Z,4.60
2018-06-18T04:24:35.368Z,4.50
2018-06-18T04:27:02.905Z,4.93
2018-06-18T04:29:30.416Z,4.33
2018-06-18T04:31:57.920Z,4.20
2018-06-18T04:34:30.659Z,4.80
2018-06-18T04:36:59.581Z,4.63
2018-06-18T04:39:27.536Z,4.40
2018-06-18T04:42:00.729Z,4.43
2018-06-18T04:44:34.081Z,4.40
2018-06-18T04:47:07.433Z,4.60
2018-06-18T04:49:40.544Z,4.20
2018-06-18T04:52:08.052Z,4.17
2018-06-18T04:54:35.739Z,4.70
2018-06-18T04:57:03.256Z,4.70
2018-06-18T04:59:32.048Z,5.17
2018-06-18T05:02:01.365Z,3.83
2018-06-18T05:04:28.913Z,4.23
2018-06-18T05:06:56.542Z,3.90
2018-06-18T05:10:01.873Z,4.00
2018-06-18T05:12:29.913Z,3.60
2018-06-18T05:14:58.716Z,3.83
2018-06-18T05:17:26.223Z,3.67
2018-06-18T05:19:53.752Z,4.03
2018-06-18T05:22:21.301Z,3.50
2018-06-18T05:24:50.983Z,3.73
2018-06-18T05:27:19.641Z,3.87
2018-06-18T05:29:47.566Z,4.07
2018-06-18T05:32:15.084Z,4.10
2018-06-18T05:34:42.592Z,4.20
2018-06-18T05:37:13.264Z,3.50
2018-06-18T05:39:41.328Z,3.20
2018-06-18T05:42:08.849Z,3.70
2018-06-18T05:44:36.343Z,3.23
2018-06-18T05:47:03.917Z,3.03
2018-06-18T05:49:31.444Z,3.67
2018-06-18T05:51:58.972Z,3.57
2018-06-18T05:54:27.056Z,3.23
2018-06-18T05:56:54.642Z,2.83
2018-06-18T05:59:22.152Z,3.10
2018-06-18T06:01:49.712Z,3.00
2018-06-18T06:04:17.224Z,3.50
2018-06-18T06:06:44.741Z,3.13
2018-06-18T06:09:12.580Z,3.43
2018-06-18T06:11:40.433Z,2.67
2018-06-18T06:14:08.569Z,3.37
2018-06-18T06:16:36.143Z,3.00
2018-06-18T06:19:03.924Z,2.93
2018-06-18T06:21:32.097Z,3.03
2018-06-18T06:23:59.673Z,2.90
2018-06-18T06:26:27.880Z,3.10
2018-06-18T06:28:55.614Z,2.50
2018-06-18T06:31:24.377Z,2.87
2018-06-18T06:33:53.288Z,2.97
2018-06-18T06:36:24.112Z,2.40
2018-06-18T06:38:52.269Z,3.40
2018-06-18T06:41:19.969Z,2.80
2018-06-18T06:43:48.346Z,2.53
2018-06-18T06:46:16.047Z,3.13
2018-06-18T06:48:43.649Z,2.43
2018-06-18T06:51:11.220Z,3.10
2018-06-18T06:53:38.866Z,3.17
2018-06-18T06:56:06.438Z,2.73
2018-06-18T06:58:34.087Z,3.10
2018-06-18T07:01:01.687Z,2.67
2018-06-18T07:03:29.311Z,3.30
2018-06-18T07:05:56.985Z,3.03
2018-06-18T07:08:24.649Z,3.90
2018-06-18T07:10:52.276Z,3.43
2018-06-18T07:13:20.034Z,3.00
2018-06-18T07:15:48.261Z,3.03
2018-06-18T07:18:15.875Z,3.67
2018-06-18T07:20:43.372Z,3.00
2018-06-18T07:23:10.965Z,3.10
2018-06-18T07:25:38.508Z,3.30
2018-06-18T07:35:09.132Z,2.90
2018-06-18T07:37:36.673Z,2.53
2018-06-18T07:40:04.231Z,2.90
2018-06-18T07:42:31.759Z,2.80
2018-06-18T07:44:59.249Z,2.63
2018-06-18T07:47:26.778Z,3.00
2018-06-18T07:49:54.294Z,3.30
2018-06-18T07:52:21.808Z,2.77
2018-06-18T07:54:49.328Z,3.20
2018-06-18T07:57:16.847Z,2.70
2018-06-18T07:59:44.346Z,3.00
2018-06-18T08:02:12.071Z,2.90
2018-06-18T08:04:39.639Z,3.10
2018-06-18T08:07:07.371Z,3.10
2018-06-18T08:09:34.951Z,3.50
2018-06-18T08:12:02.513Z,2.70
2018-06-18T08:14:30.107Z,2.40
2018-06-18T08:16:58.318Z,2.30
2018-06-18T08:19:26.101Z,2.77
2018-06-18T08:21:53.636Z,2.53
2018-06-18T08:24:21.306Z,2.30
2018-06-18T08:26:48.953Z,2.90
2018-06-18T08:29:16.796Z,2.70
2018-06-18T08:31:44.445Z,2.30
2018-06-18T08:34:12.092Z,2.60
2018-06-18T08:36:39.812Z,2.50
2018-06-18T08:39:08.644Z,2.20
2018-06-18T08:41:36.821Z,2.60
2018-06-18T08:44:04.536Z,2.40
2018-06-18T08:46:32.041Z,2.80
2018-06-18T08:49:07.024Z,2.30
2018-06-18T08:51:40.139Z,2.30
2018-06-18T08:54:13.412Z,1.90
2018-06-18T08:56:46.713Z,2.30
2018-06-18T08:59:19.920Z,2.30
2018-06-18T09:01:47.628Z,2.00
2018-06-18T09:04:16.076Z,2.10
2018-06-18T09:06:43.845Z,2.40
2018-06-18T09:09:11.368Z,2.03
2018-06-18T09:11:38.876Z,2.63
2018-06-18T09:14:06.408Z,2.30
2018-06-18T09:16:33.909Z,2.47
2018-06-18T09:19:01.445Z,2.30
2018-06-18T09:21:28.948Z,2.67
2018-06-18T09:23:56.572Z,2.80
2018-06-18T09:26:24.474Z,2.30
2018-06-18T09:28:52.109Z,2.70
2018-06-18T09:31:19.672Z,2.37
2018-06-18T09:33:47.472Z,2.30
2018-06-18T09:36:15.128Z,2.60
2018-06-18T09:38:42.898Z,2.07
2018-06-18T09:41:11.044Z,2.30
2018-06-18T09:43:38.600Z,2.20
2018-06-18T09:46:06.465Z,2.53
2018-06-18T09:48:39.925Z,2.33
2018-06-18T09:52:14.064Z,2.40
2018-06-18T09:54:47.292Z,2.10
2018-06-18T09:57:27.205Z,2.40
2018-06-18T09:59:57.979Z,2.17
2018-06-18T10:02:26.210Z,2.20
2018-06-18T10:04:54.120Z,2.60
2018-06-18T10:07:22.869Z,1.90
2018-06-18T10:09:50.493Z,2.40
2018-06-18T10:12:18.090Z,2.00
2018-06-18T10:14:45.940Z,2.30
2018-06-18T10:17:13.536Z,2.17
2018-06-18T10:19:41.296Z,1.90
2018-06-18T10:22:08.972Z,2.10
2018-06-18T10:24:36.645Z,2.10
2018-06-18T10:27:04.780Z,2.40
2018-06-18T10:29:32.662Z,2.17
2018-06-18T10:32:00.292Z,2.33
2018-06-18T10:34:33.348Z,2.20
2018-06-18T10:37:06.592Z,2.33
2018-06-18T10:39:39.911Z,1.90
2018-06-18T10:42:13.084Z,2.47
2018-06-18T10:44:40.608Z,2.53
2018-06-18T10:47:08.130Z,2.53
2018-06-18T10:49:35.633Z,2.40
2018-06-18T10:52:03.297Z,2.60
2018-06-18T10:54:30.797Z,2.20
2018-06-18T10:56:58.411Z,2.50
2018-06-18T10:59:25.860Z,2.27
2018-06-18T11:01:53.393Z,2.37
2018-06-18T11:04:26.640Z,3.10
2018-06-18T11:06:54.144Z,2.30
2018-06-18T11:09:22.361Z,2.23
2018-06-18T11:11:51.128Z,2.50
2018-06-18T11:14:18.654Z,2.50
2018-06-18T11:16:50.987Z,2.50
2018-06-18T11:20:23.565Z,2.27
2018-06-18T11:22:57.011Z,2.50
2018-06-18T11:25:30.741Z,1.80
2018-06-18T11:27:58.321Z,2.37
2018-06-18T11:30:25.973Z,2.47
2018-06-18T11:32:53.526Z,2.20
2018-06-18T11:35:21.096Z,2.30
2018-06-18T11:37:48.945Z,2.20
2018-06-18T11:40:16.503Z,2.10
2018-06-18T11:42:44.076Z,2.60
2018-06-18T11:45:11.709Z,2.00
2018-06-18T11:47:39.260Z,2.20
2018-06-18T11:50:07.201Z,2.30
2018-06-18T11:52:34.875Z,2.80
2018-06-18T11:55:02.466Z,2.30
2018-06-18T11:57:30.125Z,2.00
2018-06-18T12:00:03.402Z,2.07
2018-06-18T12:03:37.448Z,2.20
2018-06-18T12:06:10.754Z,2.23
2018-06-18T12:08:44.007Z,2.10
2018-06-18T12:11:11.592Z,2.13
2018-06-18T12:13:39.329Z,2.13
2018-06-18T12:16:06.943Z,2.70
2018-06-18T12:18:34.531Z,2.20
2018-06-18T12:21:02.170Z,2.37
2018-06-18T12:23:29.858Z,2.50
2018-06-18T12:25:58.010Z,2.47
2018-06-18T12:28:25.677Z,2.37
2018-06-18T12:30:53.208Z,2.40
2018-06-18T12:33:20.867Z,2.90
2018-06-18T12:35:48.392Z,2.50
2018-06-18T12:38:16.091Z,2.63
2018-06-18T12:40:43.684Z,2.83
2018-06-18T12:43:12.329Z,2.80
2018-06-18T12:45:45.882Z,2.20
2018-06-18T12:48:19.128Z,2.43
2018-06-18T12:50:52.401Z,2.17
2018-06-18T12:53:25.721Z,2.00
2018-06-18T12:55:59.013Z,1.97
2018-06-18T12:58:26.613Z,2.20
2018-06-18T13:00:54.332Z,2.00
2018-06-18T13:03:21.966Z,2.30
2018-06-18T13:05:49.515Z,2.23
2018-06-18T13:08:17.184Z,2.00
2018-06-18T13:10:44.739Z,2.37
2018-06-18T13:13:12.339Z,2.37
2018-06-18T13:15:40.130Z,1.97
2018-06-18T13:18:07.656Z,2.20
2018-06-18T13:20:35.287Z,2.03
2018-06-18T13:23:02.933Z,2.30
2018-06-18T13:25:31.228Z,2.53
2018-06-18T13:28:04.397Z,2.20
2018-06-18T13:30:32.122Z,2.10
2018-06-18T13:32:59.717Z,2.40
2018-06-18T13:35:27.275Z,2.00
2018-06-18T13:38:00.499Z,2.43
2018-06-18T13:43:20.285Z,2.53
2018-06-18T13:45:52.468Z,2.43
2018-06-18T13:49:24.987Z,2.20
2018-06-18T13:51:52.554Z,2.10
2018-06-18T13:54:20.212Z,2.00
2018-06-18T13:56:47.842Z,2.63
2018-06-18T13:59:15.709Z,2.70
2018-06-18T14:01:43.313Z,2.70
2018-06-18T14:04:10.861Z,2.27
2018-06-18T14:06:39.196Z,2.60
2018-06-18T14:09:07.362Z,2.23
2018-06-18T14:11:35.204Z,2.20
2018-06-18T14:14:02.888Z,2.73
2018-06-18T14:16:30.688Z,2.20
2018-06-18T14:19:02.868Z,2.87
2018-06-18T14:21:30.464Z,2.10
2018-06-18T14:23:58.162Z,2.53
2018-06-18T14:26:25.779Z,2.57
2018-06-18T14:28:53.510Z,2.83
2018-06-18T14:31:26.741Z,2.60
2018-06-18T14:33:59.851Z,2.30
2018-06-18T14:36:33.240Z,2.27
2018-06-18T14:39:06.356Z,2.70
2018-06-18T14:41:33.952Z,2.63
2018-06-18T14:44:01.578Z,2.30
2018-06-18T14:46:29.774Z,1.80
2018-06-18T14:48:57.337Z,1.90
2018-06-18T14:51:24.997Z,2.40
2018-06-18T14:53:52.528Z,1.83
2018-06-18T14:56:31.179Z,2.13
2018-06-18T14:59:02.497Z,1.97
2018-06-18T15:01:30.089Z,2.53
2018-06-18T15:03:57.851Z,2.10
2018-06-18T15:06:25.405Z,1.87
2018-06-18T15:08:53.280Z,2.10
2018-06-18T15:11:20.854Z,2.10
2018-06-18T15:13:48.439Z,2.17
2018-06-18T15:16:21.492Z,2.13
2018-06-18T15:18:49.030Z,2.20
2018-06-18T15:21:16.568Z,2.10
2018-06-18T15:23:44.158Z,2.20
2018-06-18T15:26:11.700Z,2.30
2018-06-18T15:28:39.329Z,2.20
2018-06-18T15:31:06.864Z,2.20
2018-06-18T15:33:34.409Z,2.10
2018-06-18T15:36:01.930Z,2.00
2018-06-18T15:38:30.569Z,2.17
2018-06-18T15:40:58.069Z,2.40
2018-06-18T15:43:25.664Z,2.23
2018-06-18T15:45:53.199Z,2.00
2018-06-18T15:48:20.735Z,2.07
2018-06-18T15:50:48.278Z,3.30
2018-06-18T15:53:15.829Z,2.20
2018-06-18T15:55:43.361Z,2.57
2018-06-18T15:58:11.048Z,2.23
2018-06-18T16:00:38.573Z,2.10
2018-06-18T16:03:06.162Z,2.20
2018-06-18T16:05:33.701Z,2.37
2018-06-18T16:08:01.292Z,2.17
2018-06-18T16:10:28.920Z,2.47
2018-06-18T16:12:56.500Z,2.07
2018-06-18T16:15:24.084Z,2.57
2018-06-18T16:17:51.728Z,2.30
2018-06-18T16:20:19.237Z,2.20
2018-06-18T16:22:46.904Z,2.13
2018-06-18T16:25:14.504Z,2.40
2018-06-18T16:27:42.168Z,2.30
2018-06-18T16:30:09.735Z,2.73
2018-06-18T16:32:37.285Z,2.60
2018-06-18T16:35:05.144Z,2.30
2018-06-18T16:37:32.720Z,2.80
2018-06-18T16:40:00.289Z,2.30
2018-06-18T16:42:29.041Z,2.50
2018-06-18T16:44:56.767Z,2.37
2018-06-18T16:47:24.346Z,2.57
2018-06-18T16:49:51.949Z,2.30
2018-06-18T16:52:19.477Z,2.47
2018-06-18T16:54:47.153Z,2.43
2018-06-18T16:57:14.830Z,2.33
2018-06-18T16:59:42.496Z,2.30
2018-06-18T17:02:10.194Z,2.47
2018-06-18T17:04:37.864Z,2.20
2018-06-18T17:07:05.469Z,2.57
2018-06-18T17:09:33.169Z,2.67
2018-06-18T17:12:01.098Z,2.30
2018-06-18T17:14:28.873Z,2.23
2018-06-18T17:16:56.436Z,2.10
2018-06-18T17:19:24.037Z,2.40
2018-06-18T17:21:52.365Z,2.60
2018-06-18T17:24:19.992Z,2.30
2018-06-18T17:26:47.613Z,2.43
2018-06-18T17:29:15.227Z,2.73
2018-06-18T17:31:42.838Z,2.40
2018-06-18T17:34:10.466Z,2.57
2018-06-18T17:36:38.073Z,2.23
2018-06-18T17:39:08.329Z,2.70
2018-06-18T17:41:35.935Z,2.30
2018-06-18T17:44:03.784Z,2.20
2018-06-18T17:46:31.745Z,2.20
2018-06-18T17:48:59.336Z,2.17
2018-06-18T17:51:27.005Z,2.17
2018-06-18T17:53:54.552Z,2.17
2018-06-18T17:56:22.404Z,2.40
2018-06-18T17:58:50.037Z,2.40
2018-06-18T18:01:17.598Z,2.17
2018-06-18T18:03:45.205Z,2.40
2018-06-18T18:06:12.797Z,2.17
2018-06-18T18:08:40.415Z,2.07
2018-06-18T18:11:07.984Z,2.30
2018-06-18T18:13:35.609Z,2.70
2018-06-18T18:16:03.237Z,2.70
2018-06-18T18:18:30.815Z,2.63
2018-06-18T18:20:58.350Z,2.67
2018-06-18T18:23:25.920Z,2.40
2018-06-18T18:25:53.579Z,2.30
2018-06-18T18:28:21.213Z,2.20
2018-06-18T18:30:48.811Z,2.50
2018-06-18T18:33:16.610Z,2.47
2018-06-18T18:35:45.198Z,2.30
2018-06-18T18:38:13.682Z,2.43
2018-06-18T18:40:41.537Z,2.50
2018-06-18T18:43:09.277Z,2.17
2018-06-18T18:45:37.012Z,2.43
2018-06-18T18:48:05.882Z,2.50
2018-06-18T18:50:33.636Z,2.73
2018-06-18T18:53:01.624Z,2.50
2018-06-18T18:55:42.045Z,2.70
2018-06-18T18:58:21.818Z,3.10
2018-06-18T19:00:50.274Z,3.03
2018-06-18T19:03:20.117Z,3.03
2018-06-18T19:05:48.991Z,2.70
2018-06-18T19:08:31.828Z,2.70
2018-06-18T19:11:02.455Z,3.23
2018-06-18T19:13:33.517Z,2.90
2018-06-18T19:16:01.154Z,3.03
2018-06-18T19:18:28.753Z,3.07
2018-06-18T19:21:00.029Z,3.00
2018-06-18T19:23:27.896Z,2.60
2018-06-18T19:25:55.529Z,3.00
2018-06-18T19:28:23.187Z,3.20
2018-06-18T19:31:01.104Z,3.63
2018-06-18T19:33:39.276Z,3.20
2018-06-18T19:36:07.228Z,2.97
2018-06-18T19:38:35.284Z,3.53
2018-06-18T19:41:02.846Z,3.20
2018-06-18T19:43:30.403Z,3.33
2018-06-18T19:46:00.481Z,3.20
2018-06-18T19:48:33.274Z,3.87
2018-06-18T19:51:00.794Z,3.73
2018-06-18T19:53:28.292Z,3.80
2018-06-18T19:55:56.501Z,4.00
2018-06-18T19:58:24.005Z,3.77
2018-06-18T20:00:54.236Z,4.00
2018-06-18T20:03:21.760Z,4.20
2018-06-18T20:05:50.792Z,3.83
2018-06-18T20:08:21.480Z,4.40
2018-06-18T20:10:49.025Z,4.43
2018-06-18T20:13:16.885Z,4.40
2018-06-18T20:15:44.458Z,3.87
2018-06-18T20:18:11.987Z,4.63
2018-06-18T20:20:39.528Z,4.37
2018-06-18T20:23:09.512Z,4.10
2018-06-18T20:25:41.103Z,4.37
2018-06-18T20:28:08.740Z,3.90
2018-06-18T20:30:36.296Z,4.90
2018-06-18T20:33:04.166Z,4.40
2018-06-18T20:35:34.897Z,4.77
2018-06-18T20:38:02.507Z,4.27
2018-06-18T20:40:30.000Z,4.30
2018-06-18T20:42:57.809Z,4.50
2018-06-18T20:45:25.734Z,5.00
2018-06-18T20:47:53.868Z,4.47
2018-06-18T20:50:21.420Z,4.37
2018-06-18T20:52:48.916Z,4.77
2018-06-18T20:55:16.452Z,4.67
2018-06-18T20:57:43.974Z,5.10
2018-06-18T21:00:11.568Z,4.90
2018-06-18T21:02:39.164Z,5.33
2018-06-18T21:05:06.727Z,5.27
2018-06-18T21:07:34.474Z,4.50
2018-06-18T21:10:02.106Z,4.57
2018-06-18T21:12:29.665Z,4.80
2018-06-18T21:14:57.555Z,5.13
2018-06-18T21:17:25.648Z,5.90
2018-06-18T21:19:53.183Z,5.93
2018-06-18T21:22:20.697Z,4.83
2018-06-18T21:24:48.220Z,4.80
2018-06-18T21:27:15.748Z,6.87
2018-06-18T21:29:43.273Z,5.50
2018-06-18T21:32:10.799Z,5.47
2018-06-18T21:34:38.383Z,5.33
2018-06-18T21:37:05.920Z,5.83
2018-06-18T21:39:33.505Z,6.10
2018-06-18T21:42:01.041Z,5.53
2018-06-18T21:44:40.285Z,5.00
2018-06-18T21:47:07.781Z,5.33
2018-06-18T21:49:35.288Z,7.20
2018-06-18T21:52:02.868Z,5.47
2018-06-18T21:54:30.376Z,7.00
2018-06-18T21:56:57.959Z,5.83
2018-06-18T22:02:56.597Z,6.30
2018-06-18T22:05:24.138Z,5.07
2018-06-18T22:07:51.649Z,6.77
2018-06-18T22:10:19.232Z,6.77
2018-06-18T22:12:46.744Z,7.00
2018-06-18T22:15:14.246Z,6.27
2018-06-18T22:17:41.774Z,5.50
2018-06-18T22:20:09.300Z,7.07
2018-06-18T22:22:36.818Z,7.37
2018-06-18T22:25:04.360Z,8.33
2018-06-18T22:27:31.869Z,6.43
2018-06-18T22:29:59.522Z,6.17
2018-06-18T22:32:27.053Z,6.97
2018-06-18T22:34:54.613Z,7.93
2018-06-18T22:37:22.188Z,6.57
2018-06-18T22:39:49.700Z,6.53
2018-06-18T22:42:17.273Z,7.40
2018-06-18T22:44:44.777Z,6.17
2018-06-18T22:47:12.328Z,7.03
2018-06-18T22:49:39.993Z,6.50
2018-06-18T22:52:07.499Z,5.93
2018-06-18T22:54:35.061Z,6.50
2018-06-18T22:57:02.589Z,7.33
2018-06-18T22:59:30.189Z,5.90
2018-06-18T23:01:58.834Z,6.60
2018-06-18T23:04:26.408Z,6.63
2018-06-18T23:06:54.476Z,5.77
2018-06-18T23:09:22.056Z,6.70
2018-06-18T23:11:49.589Z,6.60
2018-06-18T23:14:19.910Z,7.43
2018-06-18T23:16:47.450Z,6.53
2018-06-18T23:19:15.033Z,7.57
2018-06-18T23:21:42.542Z,8.07
2018-06-18T23:24:10.093Z,7.17
2018-06-18T23:26:37.772Z,6.27
2018-06-18T23:29:07.324Z,5.93
2018-06-18T23:31:34.845Z,6.67
2018-06-18T23:34:02.354Z,6.20
2018-06-18T23:36:29.888Z,6.40
2018-06-18T23:38:57.428Z,7.53
2018-06-18T23:41:26.571Z,7.33
2018-06-18T23:43:54.068Z,6.70
2018-06-18T23:46:21.600Z,6.60
2018-06-18T23:48:49.128Z,7.67
2018-06-18T23:51:16.701Z,8.77
2018-06-18T23:53:44.240Z,7.83
2018-06-18T23:56:11.806Z,6.63
2018-06-18T23:58:39.305Z,7.60
